createdAt,value
2018-07-14T00:00:19.445Z,96.46
2018-07-14T00:02:46.461Z,94.95
2018-07-14T00:05:13.516Z,93.84
2018-07-14T00:07:40.628Z,95.24
2018-07-14T00:10:07.797Z,94.46
2018-07-14T00:12:34.852Z,95.64
2018-07-14T00:15:01.987Z,96.13
2018-07-14T00:17:28.992Z,96.17
2018-07-14T00:19:56.016Z,95.60
2018-07-14T00:22:23.066Z,95.83
2018-07-14T00:24:50.119Z,95.81
2018-07-14T00:27:17.121Z,95.66
2018-07-14T00:29:48.655Z,95.78
2018-07-14T00:32:15.789Z,96.20
2018-07-14T00:34:42.840Z,96.36
2018-07-14T00:37:09.940Z,96.08
2018-07-14T00:39:37.024Z,96.75
2018-07-14T00:42:04.107Z,96.50
2018-07-14T00:44:31.200Z,96.19
2018-07-14T00:46:58.313Z,96.53
2018-07-14T00:49:25.324Z,97.00
2018-07-14T00:51:52.364Z,96.67
2018-07-14T00:54:19.356Z,94.87
2018-07-14T00:56:46.414Z,95.73
2018-07-14T00:59:13.450Z,96.71
2018-07-14T01:01:40.524Z,94.30
2018-07-14T01:04:07.510Z,94.06
2018-07-14T01:06:34.581Z,94.40
2018-07-14T01:09:01.577Z,93.96
2018-07-14T01:11:28.596Z,95.21
2018-07-14T01:13:55.606Z,94.45
2018-07-14T01:16:22.605Z,94.17
2018-07-14T01:18:49.625Z,95.65
2018-07-14T01:21:16.647Z,96.93
2018-07-14T01:23:43.728Z,94.89
2018-07-14T01:26:10.825Z,93.05
2018-07-14T01:28:37.937Z,92.53
2018-07-14T01:31:05.064Z,90.96
2018-07-14T01:33:32.137Z,93.34
2018-07-14T01:35:59.260Z,92.63
2018-07-14T01:38:26.280Z,92.28
2018-07-14T01:40:53.384Z,91.54
2018-07-14T01:43:20.539Z,92.03
2018-07-14T01:45:47.556Z,93.09
2018-07-14T01:48:14.583Z,93.13
2018-07-14T01:50:41.618Z,92.86
2018-07-14T01:53:08.596Z,93.35
2018-07-14T01:55:35.629Z,93.61
2018-07-14T01:58:02.717Z,93.61
2018-07-14T02:00:29.918Z,94.04
2018-07-14T02:02:57.034Z,93.59
2018-07-14T02:05:24.068Z,94.49
2018-07-14T02:07:51.113Z,95.09
2018-07-14T02:10:18.181Z,94.39
2018-07-14T02:12:45.185Z,94.46
2018-07-14T02:15:12.196Z,94.37
2018-07-14T02:17:39.316Z,93.15
2018-07-14T02:20:06.322Z,90.93
2018-07-14T02:22:40.480Z,92.08
2018-07-14T02:25:07.488Z,92.66
2018-07-14T02:27:34.577Z,93.17
2018-07-14T02:30:01.605Z,93.08
2018-07-14T02:32:28.614Z,92.96
2018-07-14T02:34:55.638Z,93.11
2018-07-14T02:37:22.725Z,93.84
2018-07-14T02:39:49.915Z,93.70
2018-07-14T02:42:16.912Z,94.58
2018-07-14T02:44:44.057Z,93.58
2018-07-14T02:47:11.181Z,93.68
2018-07-14T02:49:38.235Z,92.43
2018-07-14T02:52:05.544Z,92.59
2018-07-14T02:54:32.537Z,92.84
2018-07-14T02:56:59.534Z,93.22
2018-07-14T02:59:26.573Z,94.01
2018-07-14T03:01:53.593Z,93.84
2018-07-14T03:04:20.679Z,93.74
2018-07-14T03:06:47.791Z,93.40
2018-07-14T03:09:14.775Z,93.56
2018-07-14T03:11:41.784Z,92.84
2018-07-14T03:14:08.804Z,93.73
2018-07-14T03:16:35.933Z,94.84
2018-07-14T03:19:02.956Z,93.95
2018-07-14T03:21:30.014Z,94.51
2018-07-14T03:23:57.107Z,93.72
2018-07-14T03:26:24.112Z,93.78
2018-07-14T03:28:51.117Z,93.50
2018-07-14T03:31:18.158Z,93.85
2018-07-14T03:33:45.156Z,93.30
2018-07-14T03:36:12.173Z,93.79
2018-07-14T03:38:39.172Z,93.74
2018-07-14T03:41:06.401Z,92.71
2018-07-14T03:43:33.404Z,93.09
2018-07-14T03:46:00.410Z,93.64
2018-07-14T03:48:27.436Z,92.02
2018-07-14T03:50:54.452Z,92.97
2018-07-14T03:53:21.441Z,93.04
2018-07-14T03:55:48.458Z,93.43
2018-07-14T03:58:15.428Z,92.23
2018-07-14T04:00:42.460Z,92.62
2018-07-14T04:03:09.558Z,92.61
2018-07-14T04:05:36.693Z,92.34
2018-07-14T04:08:03.845Z,92.23
2018-07-14T04:10:30.857Z,90.67
2018-07-14T04:12:57.886Z,92.00
2018-07-14T04:15:24.891Z,91.83
2018-07-14T04:17:56.705Z,91.37
2018-07-14T04:20:23.716Z,91.81
2018-07-14T04:22:51.216Z,90.00
2018-07-14T04:25:18.216Z,90.31
2018-07-14T04:27:45.242Z,91.10
2018-07-14T04:30:12.283Z,91.35
2018-07-14T04:32:39.414Z,91.93
2018-07-14T04:35:06.438Z,91.88
2018-07-14T04:37:33.432Z,91.89
2018-07-14T04:40:00.464Z,92.00
2018-07-14T04:42:27.570Z,91.40
2018-07-14T04:44:54.508Z,90.79
2018-07-14T04:47:21.630Z,90.89
2018-07-14T04:49:48.745Z,91.10
2018-07-14T04:52:15.742Z,91.37
2018-07-14T04:54:42.749Z,90.84
2018-07-14T04:57:09.856Z,90.72
2018-07-14T04:59:37.022Z,90.93
2018-07-14T05:02:04.073Z,91.86
2018-07-14T05:04:31.082Z,91.64
2018-07-14T05:06:58.073Z,91.32
2018-07-14T05:09:25.085Z,91.62
2018-07-14T05:11:52.151Z,89.44
2018-07-14T05:14:19.142Z,88.89
2018-07-14T05:16:46.144Z,88.66
2018-07-14T05:19:13.148Z,89.17
2018-07-14T05:21:40.189Z,87.67
2018-07-14T05:24:07.220Z,88.83
2018-07-14T05:26:34.223Z,89.50
2018-07-14T05:29:01.301Z,90.47
2018-07-14T05:31:28.315Z,89.80
2018-07-14T05:33:55.425Z,89.74
2018-07-14T05:36:22.422Z,89.68
2018-07-14T05:38:49.472Z,89.78
2018-07-14T05:41:16.470Z,90.14
2018-07-14T05:43:43.507Z,90.09
2018-07-14T05:46:10.502Z,90.28
2018-07-14T05:48:37.500Z,89.50
2018-07-14T05:51:04.558Z,90.01
2018-07-14T05:53:31.690Z,90.15
2018-07-14T05:55:58.717Z,88.11
2018-07-14T05:58:25.740Z,88.39
2018-07-14T06:00:52.791Z,90.77
2018-07-14T06:03:19.938Z,92.26
2018-07-14T06:05:46.967Z,87.23
2018-07-14T06:08:14.046Z,89.41
2018-07-14T06:10:41.153Z,86.66
2018-07-14T06:13:08.151Z,87.31
2018-07-14T06:15:35.205Z,93.15
2018-07-14T06:18:02.351Z,90.00
2018-07-14T06:20:29.464Z,85.44
2018-07-14T06:22:56.632Z,85.21
2018-07-14T06:25:23.816Z,84.71
2018-07-14T06:27:50.916Z,84.38
2018-07-14T06:30:17.993Z,82.56
2018-07-14T06:32:45.119Z,84.61
2018-07-14T06:35:12.197Z,82.54
2018-07-14T06:37:39.293Z,83.72
2018-07-14T06:40:06.372Z,82.61
2018-07-14T06:42:33.369Z,84.09
2018-07-14T06:45:00.477Z,82.10
2018-07-14T06:47:27.899Z,80.65
2018-07-14T06:49:54.921Z,81.66
2018-07-14T06:52:21.941Z,82.87
2018-07-14T06:54:48.993Z,82.82
2018-07-14T06:57:16.005Z,81.56
2018-07-14T06:59:43.025Z,83.03
2018-07-14T07:02:10.080Z,83.54
2018-07-14T07:04:37.199Z,82.82
2018-07-14T07:07:04.237Z,82.15
2018-07-14T07:09:31.320Z,82.67
2018-07-14T07:11:58.681Z,82.58
2018-07-14T07:14:25.691Z,82.12
2018-07-14T07:16:52.840Z,81.52
2018-07-14T07:19:19.936Z,81.89
2018-07-14T07:21:46.934Z,82.70
2018-07-14T07:24:13.979Z,81.62
2018-07-14T07:26:41.004Z,81.11
2018-07-14T07:29:08.069Z,80.99
2018-07-14T07:31:35.097Z,79.92
2018-07-14T07:34:02.573Z,80.54
2018-07-14T07:36:30.328Z,81.52
2018-07-14T07:38:57.791Z,80.80
2018-07-14T07:41:24.831Z,80.58
2018-07-14T07:43:51.946Z,79.79
2018-07-14T07:46:19.029Z,79.83
2018-07-14T07:48:46.056Z,81.48
2018-07-14T07:51:15.508Z,81.70
2018-07-14T07:53:42.688Z,79.82
2018-07-14T07:56:09.722Z,79.71
2018-07-14T07:58:36.764Z,79.85
2018-07-14T08:01:03.828Z,78.78
2018-07-14T08:03:30.928Z,78.38
2018-07-14T08:05:57.980Z,80.42
2018-07-14T08:08:25.077Z,79.32
2018-07-14T08:10:52.321Z,78.73
2018-07-14T08:16:00.807Z,78.52
2018-07-14T08:18:28.541Z,78.40
2018-07-14T08:20:56.590Z,78.78
2018-07-14T08:23:23.708Z,78.55
2018-07-14T08:25:53.209Z,77.47
2018-07-14T08:28:20.441Z,77.33
2018-07-14T08:30:47.515Z,76.73
2018-07-14T08:33:14.619Z,76.11
2018-07-14T08:35:41.690Z,77.20
2018-07-14T08:38:08.752Z,76.53
2018-07-14T08:40:35.880Z,74.85
2018-07-14T08:43:03.006Z,76.05
2018-07-14T08:45:30.109Z,75.20
2018-07-14T08:47:57.220Z,76.88
2018-07-14T08:50:24.314Z,76.20
2018-07-14T08:52:51.396Z,78.44
2018-07-14T08:55:18.500Z,75.52
2018-07-14T08:57:48.151Z,74.42
2018-07-14T09:00:15.336Z,75.54
2018-07-14T09:02:42.373Z,75.48
2018-07-14T09:05:09.480Z,74.93
2018-07-14T09:07:36.497Z,78.76
2018-07-14T09:10:04.165Z,70.24
2018-07-14T09:12:31.184Z,73.74
2018-07-14T09:14:58.383Z,75.51
2018-07-14T09:17:25.401Z,77.78
2018-07-14T09:19:52.500Z,71.93
2018-07-14T09:22:19.594Z,70.11
2018-07-14T09:24:46.679Z,71.47
2018-07-14T09:27:13.854Z,69.69
2018-07-14T09:29:40.928Z,70.28
2018-07-14T09:32:08.051Z,70.37
2018-07-14T09:34:35.095Z,69.40
2018-07-14T09:37:02.117Z,71.33
2018-07-14T09:39:29.316Z,73.41
2018-07-14T09:41:56.437Z,71.30
2018-07-14T09:44:23.451Z,70.97
2018-07-14T09:46:50.460Z,70.71
2018-07-14T09:49:17.554Z,70.67
2018-07-14T09:51:44.997Z,73.82
2018-07-14T09:54:12.006Z,72.88
2018-07-14T09:56:39.134Z,72.55
2018-07-14T09:59:06.159Z,74.84
2018-07-14T10:01:33.216Z,73.58
2018-07-14T10:04:00.453Z,74.93
2018-07-14T10:06:27.489Z,73.70
2018-07-14T10:08:54.729Z,73.03
2018-07-14T10:11:21.749Z,73.26
2018-07-14T10:13:48.859Z,72.04
2018-07-14T10:16:16.021Z,72.60
2018-07-14T10:18:43.121Z,73.67
2018-07-14T10:21:10.137Z,71.59
2018-07-14T10:23:37.325Z,73.39
2018-07-14T10:26:04.385Z,72.81
2018-07-14T10:28:31.561Z,70.97
2018-07-14T10:30:59.183Z,70.44
2018-07-14T10:33:26.374Z,72.79
2018-07-14T10:35:53.389Z,71.34
2018-07-14T10:38:20.493Z,72.90
2018-07-14T10:40:47.717Z,72.57
2018-07-14T10:43:14.733Z,73.49
2018-07-14T10:45:41.795Z,69.50
2018-07-14T10:48:08.784Z,69.41
2018-07-14T10:50:35.819Z,70.39
2018-07-14T10:53:09.832Z,71.35
2018-07-14T10:55:36.854Z,69.58
2018-07-14T10:58:03.937Z,69.75
2018-07-14T11:00:31.075Z,69.90
2018-07-14T11:02:58.471Z,70.58
2018-07-14T11:05:25.486Z,71.15
2018-07-14T11:07:52.656Z,70.79
2018-07-14T11:10:19.689Z,70.42
2018-07-14T11:12:46.698Z,70.37
2018-07-14T11:15:13.845Z,69.95
2018-07-14T11:17:41.051Z,70.87
2018-07-14T11:20:08.129Z,69.58
2018-07-14T11:22:35.177Z,70.26
2018-07-14T11:25:02.286Z,70.77
2018-07-14T11:27:29.498Z,72.22
2018-07-14T11:29:56.572Z,72.60
2018-07-14T11:32:23.960Z,70.93
2018-07-14T11:34:50.990Z,70.38
2018-07-14T11:37:18.096Z,68.04
2018-07-14T11:39:45.203Z,66.83
2018-07-14T11:42:12.330Z,69.27
2018-07-14T11:44:39.364Z,71.33
2018-07-14T11:47:06.474Z,65.83
2018-07-14T11:49:33.593Z,65.54
2018-07-14T11:52:01.052Z,66.94
2018-07-14T11:54:28.248Z,69.52
2018-07-14T11:56:55.343Z,66.12
2018-07-14T11:59:22.596Z,66.03
2018-07-14T12:01:49.685Z,66.88
2018-07-14T12:04:17.122Z,67.34
2018-07-14T12:06:44.129Z,68.30
2018-07-14T12:09:11.145Z,65.11
2018-07-14T12:11:38.253Z,65.83
2018-07-14T12:14:05.412Z,65.04
2018-07-14T12:16:32.617Z,67.49
2018-07-14T12:18:59.677Z,66.27
2018-07-14T12:21:26.780Z,64.73
2018-07-14T12:23:53.804Z,67.06
2018-07-14T12:26:20.976Z,65.55
2018-07-14T12:28:48.009Z,64.65
2018-07-14T12:31:15.116Z,63.42
2018-07-14T12:33:42.397Z,65.52
2018-07-14T12:36:09.840Z,65.17
2018-07-14T12:38:36.986Z,65.59
2018-07-14T12:41:04.120Z,65.56
2018-07-14T12:43:31.332Z,65.63
2018-07-14T12:45:58.353Z,67.06
2018-07-14T12:48:25.449Z,65.41
2018-07-14T12:50:52.589Z,66.08
2018-07-14T12:53:19.756Z,65.79
2018-07-14T12:55:46.810Z,65.79
2018-07-14T12:58:13.920Z,66.45
2018-07-14T13:00:40.977Z,67.29
2018-07-14T13:03:08.036Z,64.64
2018-07-14T13:05:35.149Z,63.07
2018-07-14T13:08:02.293Z,61.40
2018-07-14T13:10:29.336Z,61.86
2018-07-14T13:12:56.412Z,60.89
2018-07-14T13:15:23.529Z,62.56
2018-07-14T13:17:50.888Z,61.69
2018-07-14T13:20:17.937Z,61.57
2018-07-14T13:22:44.957Z,61.90
2018-07-14T13:25:12.071Z,62.45
2018-07-14T13:27:39.084Z,64.34
2018-07-14T13:30:06.248Z,63.65
2018-07-14T13:32:33.474Z,63.88
2018-07-14T13:35:00.634Z,64.98
2018-07-14T13:37:27.650Z,64.47
2018-07-14T13:39:54.704Z,65.25
2018-07-14T13:42:21.753Z,67.30
2018-07-14T13:44:48.816Z,66.45
2018-07-14T13:47:15.828Z,66.05
2018-07-14T13:49:42.853Z,64.87
2018-07-14T13:52:09.979Z,67.61
2018-07-14T13:54:37.045Z,65.29
2018-07-14T13:57:04.148Z,65.19
2018-07-14T13:59:31.250Z,64.07
2018-07-14T14:01:58.343Z,64.32
2018-07-14T14:04:25.393Z,62.47
2018-07-14T14:06:52.510Z,65.18
2018-07-14T14:09:19.616Z,64.60
2018-07-14T14:11:46.664Z,65.09
2018-07-14T14:14:13.723Z,62.81
2018-07-14T14:16:40.738Z,62.08
2018-07-14T14:19:07.854Z,62.44
2018-07-14T14:21:34.889Z,62.24
2018-07-14T14:24:01.982Z,61.93
2018-07-14T14:26:29.079Z,60.00
2018-07-14T14:28:56.272Z,62.93
2018-07-14T14:31:23.465Z,62.67
2018-07-14T14:33:50.700Z,63.83
2018-07-14T14:36:17.739Z,63.26
2018-07-14T14:38:44.762Z,61.67
2018-07-14T14:41:11.957Z,61.24
2018-07-14T14:43:39.037Z,60.50
2018-07-14T14:46:06.120Z,62.69
2018-07-14T14:48:33.320Z,60.19
2018-07-14T14:51:00.377Z,61.45
2018-07-14T14:53:27.492Z,55.47
2018-07-14T14:55:54.625Z,59.06
2018-07-14T14:58:21.666Z,57.34
2018-07-14T15:00:48.699Z,59.50
2018-07-14T15:03:15.812Z,59.91
2018-07-14T15:05:42.917Z,59.12
2018-07-14T15:08:10.022Z,61.32
2018-07-14T15:10:37.111Z,59.80
2018-07-14T15:13:04.314Z,59.49
2018-07-14T15:15:31.365Z,59.83
2018-07-14T15:17:58.467Z,60.46
2018-07-14T15:20:25.591Z,58.98
2018-07-14T15:22:52.709Z,58.35
2018-07-14T15:25:19.773Z,60.44
2018-07-14T15:27:46.773Z,59.53
2018-07-14T15:30:13.797Z,59.11
2018-07-14T15:32:41.056Z,61.99
2018-07-14T15:35:08.182Z,59.49
2018-07-14T15:37:35.261Z,61.11
2018-07-14T15:40:02.308Z,60.97
2018-07-14T15:42:29.621Z,62.82
2018-07-14T15:44:56.637Z,64.43
2018-07-14T15:47:23.856Z,63.99
2018-07-14T15:49:50.865Z,64.74
2018-07-14T15:52:18.022Z,64.75
2018-07-14T15:54:45.101Z,65.46
2018-07-14T15:57:12.162Z,66.15
2018-07-14T15:59:39.265Z,64.85
2018-07-14T16:02:06.305Z,65.21
2018-07-14T16:04:33.503Z,65.67
2018-07-14T16:07:00.588Z,67.18
2018-07-14T16:09:27.662Z,68.04
2018-07-14T16:11:54.764Z,66.65
2018-07-14T16:14:21.864Z,67.17
2018-07-14T16:16:48.893Z,66.83
2018-07-14T16:19:16.000Z,66.57
2018-07-14T16:21:43.184Z,66.08
2018-07-14T16:24:10.285Z,66.83
2018-07-14T16:26:37.375Z,66.62
2018-07-14T16:29:04.376Z,67.11
2018-07-14T16:31:31.421Z,65.77
2018-07-14T16:33:58.533Z,66.25
2018-07-14T16:36:25.633Z,69.29
2018-07-14T16:38:52.693Z,65.79
2018-07-14T16:41:19.843Z,64.91
2018-07-14T16:43:46.964Z,66.29
2018-07-14T16:46:13.972Z,66.51
2018-07-14T16:48:41.095Z,65.08
2018-07-14T16:51:08.204Z,64.18
2018-07-14T16:53:35.237Z,64.02
2018-07-14T16:56:02.300Z,65.43
2018-07-14T16:58:29.433Z,63.74
2018-07-14T17:00:56.481Z,61.09
2018-07-14T17:03:23.570Z,61.13
2018-07-14T17:05:50.596Z,61.15
2018-07-14T17:08:17.977Z,63.03
2018-07-14T17:10:45.095Z,62.78
2018-07-14T17:13:12.130Z,62.48
2018-07-14T17:23:36.160Z,62.54
2018-07-14T17:29:58.311Z,64.83
2018-07-14T17:32:25.385Z,63.74
2018-07-14T17:34:52.478Z,65.06
2018-07-14T17:37:19.641Z,62.17
2018-07-14T17:39:46.646Z,62.70
2018-07-14T17:42:13.672Z,63.31
2018-07-14T17:44:40.715Z,64.68
2018-07-14T17:47:07.709Z,63.02
2018-07-14T17:49:34.916Z,64.24
2018-07-14T17:52:02.111Z,64.04
2018-07-14T17:54:29.057Z,64.61
2018-07-14T17:56:56.326Z,63.94
2018-07-14T17:59:23.528Z,65.70
2018-07-14T18:01:50.656Z,63.94
2018-07-14T18:04:17.788Z,64.71
2018-07-14T18:06:44.901Z,64.10
2018-07-14T18:09:11.901Z,64.65
2018-07-14T18:11:39.077Z,64.40
2018-07-14T18:14:06.096Z,65.40
2018-07-14T18:16:33.233Z,65.43
2018-07-14T18:19:00.255Z,65.19
2018-07-14T18:21:27.266Z,65.87
2018-07-14T18:23:54.977Z,64.50
2018-07-14T18:26:22.085Z,65.73
2018-07-14T18:28:49.177Z,66.61
2018-07-14T18:31:16.606Z,66.35
2018-07-14T18:33:43.640Z,66.28
2018-07-14T18:36:10.904Z,65.92
2018-07-14T18:38:37.993Z,65.70
2018-07-14T18:41:05.106Z,66.00
2018-07-14T18:43:32.268Z,67.23
2018-07-14T18:45:59.331Z,65.89
2018-07-14T18:48:26.579Z,66.62
2018-07-14T18:50:54.013Z,66.89
2018-07-14T18:53:21.158Z,67.11
2018-07-14T18:55:48.381Z,67.48
2018-07-14T18:58:15.594Z,68.05
2018-07-14T19:00:42.685Z,67.08
2018-07-14T19:03:10.082Z,69.38
2018-07-14T19:05:37.322Z,67.56
2018-07-14T19:08:05.324Z,69.01
2018-07-14T19:10:32.408Z,67.86
2018-07-14T19:12:59.464Z,70.05
2018-07-14T19:15:26.526Z,68.78
2018-07-14T19:17:53.681Z,69.47
2018-07-14T19:20:20.757Z,69.59
2018-07-14T19:22:47.880Z,69.56
2018-07-14T19:25:14.977Z,69.99
2018-07-14T19:27:42.191Z,69.79
2018-07-14T19:30:09.146Z,69.79
2018-07-14T19:32:38.545Z,71.08
2018-07-14T19:35:05.977Z,71.72
2018-07-14T19:37:33.058Z,70.87
2018-07-14T19:40:00.156Z,71.14
2018-07-14T19:42:27.373Z,71.12
2018-07-14T19:44:54.493Z,71.90
2018-07-14T19:47:21.936Z,72.41
2018-07-14T19:49:49.608Z,73.65
2018-07-14T19:52:17.062Z,74.31
2018-07-14T19:54:44.199Z,74.25
2018-07-14T19:57:11.795Z,74.82
2018-07-14T19:59:39.328Z,75.27
2018-07-14T20:02:07.291Z,75.56
2018-07-14T20:04:34.597Z,74.37
2018-07-14T20:07:01.923Z,75.64
2018-07-14T20:09:29.394Z,76.34
2018-07-14T20:11:56.494Z,75.85
2018-07-14T20:14:23.621Z,76.83
2018-07-14T20:16:50.744Z,75.56
2018-07-14T20:19:24.747Z,75.43
2018-07-14T20:21:51.917Z,76.01
2018-07-14T20:24:19.005Z,77.87
2018-07-14T20:26:47.464Z,78.75
2018-07-14T20:29:14.721Z,77.52
2018-07-14T20:31:41.894Z,79.10
2018-07-14T20:34:09.065Z,78.59
2018-07-14T20:36:36.112Z,79.09
2018-07-14T20:39:03.995Z,79.73
2018-07-14T20:41:31.255Z,79.37
2018-07-14T20:43:58.278Z,79.87
2018-07-14T20:46:25.712Z,80.71
2018-07-14T20:48:52.847Z,81.06
2018-07-14T20:51:20.224Z,80.61
2018-07-14T20:53:47.423Z,80.92
2018-07-14T20:56:14.597Z,81.71
2018-07-14T20:58:41.705Z,81.65
2018-07-14T21:01:08.951Z,81.90
2018-07-14T21:03:36.245Z,82.41
2018-07-14T21:06:03.382Z,83.09
2018-07-14T21:08:30.537Z,84.02
2018-07-14T21:10:57.620Z,83.51
2018-07-14T21:13:24.715Z,84.66
2018-07-14T21:15:51.813Z,85.21
2018-07-14T21:18:18.882Z,85.72
2018-07-14T21:20:46.046Z,85.94
2018-07-14T21:23:13.017Z,86.60
2018-07-14T21:25:40.167Z,86.22
2018-07-14T21:28:07.333Z,87.15
2018-07-14T21:30:34.469Z,87.25
2018-07-14T21:33:01.618Z,87.08
2018-07-14T21:35:29.590Z,87.29
2018-07-14T21:37:58.757Z,88.65
2018-07-14T21:40:27.538Z,89.14
2018-07-14T21:42:56.267Z,89.13
2018-07-14T21:45:24.343Z,89.33
2018-07-14T21:47:52.044Z,90.21
2018-07-14T21:50:21.214Z,89.84
2018-07-14T21:52:48.944Z,89.96
2018-07-14T21:55:16.107Z,90.40
2018-07-14T21:57:43.928Z,91.16
2018-07-14T22:00:21.343Z,91.86
2018-07-14T22:02:49.298Z,91.53
2018-07-14T22:05:16.388Z,91.77
2018-07-14T22:07:43.702Z,92.01
2018-07-14T22:10:11.660Z,92.13
2018-07-14T22:12:38.830Z,91.88
2018-07-14T22:15:05.989Z,93.57
2018-07-14T22:17:33.098Z,92.43
2018-07-14T22:20:01.570Z,93.10
2018-07-14T22:22:28.766Z,92.76
2018-07-14T22:24:55.853Z,93.21
2018-07-14T22:27:22.962Z,93.07
2018-07-14T22:29:50.098Z,93.08
2018-07-14T22:32:17.249Z,93.19
2018-07-14T22:34:44.321Z,93.50
2018-07-14T22:37:11.382Z,94.05
2018-07-14T22:39:38.521Z,93.59
2018-07-14T22:42:05.619Z,93.61
2018-07-14T22:44:32.697Z,93.50
2018-07-14T22:46:59.778Z,93.90
2018-07-14T22:49:26.946Z,93.95
2018-07-14T22:51:54.041Z,94.15
2018-07-14T22:54:21.236Z,94.41
2018-07-14T22:56:48.381Z,93.78
2018-07-14T22:59:15.501Z,93.81
2018-07-14T23:01:42.573Z,94.99
2018-07-14T23:04:09.633Z,94.68
2018-07-14T23:06:36.718Z,94.96
2018-07-14T23:09:05.941Z,95.29
2018-07-14T23:11:33.058Z,95.64
2018-07-14T23:14:00.172Z,96.03
2018-07-14T23:16:27.269Z,96.03
2018-07-14T23:18:54.376Z,94.81
2018-07-14T23:21:21.521Z,95.27
2018-07-14T23:23:48.623Z,95.40
2018-07-14T23:26:15.726Z,96.12
2018-07-14T23:28:42.804Z,96.23
2018-07-14T23:31:09.937Z,97.04
2018-07-14T23:33:37.014Z,96.93
2018-07-14T23:36:04.723Z,97.31
2018-07-14T23:38:31.831Z,97.65
2018-07-14T23:40:58.820Z,98.42
2018-07-14T23:43:26.163Z,98.83
2018-07-14T23:45:53.309Z,98.53
2018-07-14T23:48:20.392Z,98.38
2018-07-14T23:50:47.533Z,98.49
2018-07-14T23:53:15.119Z,98.33
2018-07-14T23:55:42.243Z,98.66
2018-07-14T23:58:09.338Z,99.17
